Time;durP1;ratioP1;P1;durP2;ratioP2;P2;SDS_P1;SDS_P2;PMS_P1;PMS_P2;Temp;Humidity;BMP_temperature;BMP_pressure;BME280_temperature;BME280_humidity;BME280_pressure;Samples;Min_cycle;Max_cycle;Signal;HPM_P1;HPM_P2
2022/03/22 00:00:30;;;;;;;16.70;10.93;;;;;;;;;;4992740;28;20242;-84
2022/03/22 00:02:57;;;;;;;17.80;11.00;;;;;;;;;;4993329;28;20203;-84
2022/03/22 00:05:26;;;;;;;17.37;11.07;;;;;;;;;;4993186;28;20242;-84
2022/03/22 00:07:53;;;;;;;16.20;10.77;;;;;;;;;;4993328;28;20208;-84
2022/03/22 00:10:20;;;;;;;18.03;11.50;;;;;;;;;;4992424;28;20241;-83
2022/03/22 00:12:49;;;;;;;16.83;11.23;;;;;;;;;;4993290;28;20598;-84
2022/03/22 00:15:17;;;;;;;17.20;11.70;;;;;;;;;;4992831;28;20208;-83
2022/03/22 00:17:44;;;;;;;17.57;11.47;;;;;;;;;;4992946;28;20213;-84
2022/03/22 00:20:12;;;;;;;17.07;11.23;;;;;;;;;;4992992;28;20237;-84
2022/03/22 00:22:41;;;;;;;17.67;12.10;;;;;;;;;;4995023;28;20203;-84
2022/03/22 00:25:09;;;;;;;15.80;12.43;;;;;;;;;;4997552;28;20233;-84
2022/03/22 00:30:18;;;;;;;23.07;11.20;;;;;;;;;;5015057;28;20228;-83
2022/03/22 00:32:45;;;;;;;14.93;11.30;;;;;;;;;;5013712;28;20259;-83
2022/03/22 00:35:12;;;;;;;19.57;12.53;;;;;;;;;;4997482;28;20219;-84
2022/03/22 00:37:42;;;;;;;19.37;12.53;;;;;;;;;;4995033;28;20204;-84
2022/03/22 00:40:12;;;;;;;19.67;10.90;;;;;;;;;;4994446;28;20259;-84
2022/03/22 00:42:39;;;;;;;17.23;11.83;;;;;;;;;;4996480;28;20251;-81
2022/03/22 00:45:07;;;;;;;16.60;11.87;;;;;;;;;;4996834;28;20215;-83
2022/03/22 00:47:34;;;;;;;17.13;11.47;;;;;;;;;;4996459;28;20216;-83
2022/03/22 00:50:01;;;;;;;16.47;11.73;;;;;;;;;;4996667;28;20235;-83
2022/03/22 00:52:28;;;;;;;18.90;12.50;;;;;;;;;;4996190;28;20264;-83
2022/03/22 00:54:56;;;;;;;19.97;12.90;;;;;;;;;;4996419;28;20223;-84
2022/03/22 00:57:23;;;;;;;21.00;13.60;;;;;;;;;;4995866;28;20608;-83
2022/03/22 01:00:04;;;;;;;23.53;14.00;;;;;;;;;;4996325;28;20232;-83
2022/03/22 01:02:32;;;;;;;17.27;12.50;;;;;;;;;;5004211;28;20676;-83
2022/03/22 01:04:59;;;;;;;21.30;13.43;;;;;;;;;;5016333;28;20673;-82
2022/03/22 01:07:27;;;;;;;19.10;12.47;;;;;;;;;;5015292;28;20585;-83
2022/03/22 01:09:54;;;;;;;17.63;12.77;;;;;;;;;;5016068;28;20293;-83
2022/03/22 01:12:23;;;;;;;18.87;12.77;;;;;;;;;;5015320;28;20232;-83
2022/03/22 01:14:50;;;;;;;18.63;12.53;;;;;;;;;;5020848;28;20221;-83
2022/03/22 01:17:17;;;;;;;19.10;13.53;;;;;;;;;;5030069;28;20239;-83
2022/03/22 01:19:44;;;;;;;24.30;12.70;;;;;;;;;;5026979;28;20239;-83
2022/03/22 01:22:11;;;;;;;26.37;12.87;;;;;;;;;;5027801;28;20235;-84
2022/03/22 01:24:38;;;;;;;17.17;11.97;;;;;;;;;;5032914;28;20261;-83
2022/03/22 01:27:06;;;;;;;17.50;11.30;;;;;;;;;;5034818;28;20223;-83
2022/03/22 01:29:34;;;;;;;20.10;13.47;;;;;;;;;;5035541;28;20203;-83
2022/03/22 01:32:01;;;;;;;14.57;11.47;;;;;;;;;;5032394;28;20239;-83
2022/03/22 01:34:28;;;;;;;18.17;11.93;;;;;;;;;;5030539;28;20213;-83
2022/03/22 01:36:55;;;;;;;18.93;11.87;;;;;;;;;;5028274;28;20239;-83
2022/03/22 01:39:22;;;;;;;16.73;11.63;;;;;;;;;;5035153;28;20303;-83
2022/03/22 01:41:49;;;;;;;14.30;11.53;;;;;;;;;;5034914;28;20232;-83
2022/03/22 01:44:17;;;;;;;16.07;11.83;;;;;;;;;;5035613;28;20221;-83
2022/03/22 01:46:46;;;;;;;15.70;11.53;;;;;;;;;;5034728;28;20252;-83
2022/03/22 01:49:13;;;;;;;15.97;12.07;;;;;;;;;;5034986;28;20214;-82
2022/03/22 01:51:41;;;;;;;16.53;12.40;;;;;;;;;;5033484;28;20238;-82
2022/03/22 01:54:08;;;;;;;19.27;11.70;;;;;;;;;;5033422;28;20206;-83
2022/03/22 01:56:36;;;;;;;18.70;12.57;;;;;;;;;;5034306;28;20235;-83
2022/03/22 01:59:03;;;;;;;16.60;11.50;;;;;;;;;;5034903;28;20215;-83
2022/03/22 02:07:03;;;;;;;20.17;12.53;;;;;;;;;;5029027;28;20312;-82
2022/03/22 02:09:30;;;;;;;19.40;12.47;;;;;;;;;;5019149;28;20231;-82
2022/03/22 02:11:57;;;;;;;16.00;12.10;;;;;;;;;;5034664;28;20243;-83
2022/03/22 02:14:25;;;;;;;20.17;12.53;;;;;;;;;;5025233;28;20195;-83
2022/03/22 02:16:52;;;;;;;17.83;12.57;;;;;;;;;;5014419;28;20239;-83
2022/03/22 02:19:21;;;;;;;16.97;11.73;;;;;;;;;;5015229;28;20235;-83
2022/03/22 02:21:51;;;;;;;17.50;11.83;;;;;;;;;;5014645;28;20259;-83
2022/03/22 02:24:19;;;;;;;17.10;11.43;;;;;;;;;;5015314;28;20207;-83
2022/03/22 02:26:46;;;;;;;17.13;11.73;;;;;;;;;;5026365;28;20234;-83
2022/03/22 02:29:13;;;;;;;17.77;11.70;;;;;;;;;;5034720;28;20214;-83
2022/03/22 02:31:40;;;;;;;19.80;11.40;;;;;;;;;;5034247;28;20322;-82
2022/03/22 02:34:07;;;;;;;15.53;11.17;;;;;;;;;;5033318;28;20648;-83
2022/03/22 02:36:34;;;;;;;15.87;11.43;;;;;;;;;;5032066;28;20238;-82
2022/03/22 02:39:01;;;;;;;16.83;11.30;;;;;;;;;;5035110;28;20214;-82
2022/03/22 02:41:30;;;;;;;16.10;11.53;;;;;;;;;;5034156;28;20245;-82
2022/03/22 02:43:57;;;;;;;15.93;11.17;;;;;;;;;;5034972;28;20214;-83
2022/03/22 02:46:24;;;;;;;15.67;11.33;;;;;;;;;;5033267;28;20239;-82
2022/03/22 02:48:51;;;;;;;18.63;12.80;;;;;;;;;;5034155;28;20211;-83
2022/03/22 02:51:19;;;;;;;20.33;12.30;;;;;;;;;;5033223;28;20260;-82
2022/03/22 02:53:46;;;;;;;26.60;11.53;;;;;;;;;;5033855;28;20261;-82
2022/03/22 02:56:13;;;;;;;20.47;13.13;;;;;;;;;;5033781;28;20233;-83
2022/03/22 02:58:41;;;;;;;17.87;12.50;;;;;;;;;;5033915;28;20210;-82
2022/03/22 03:01:08;;;;;;;19.57;12.83;;;;;;;;;;5033973;28;20223;-82
2022/03/22 03:03:35;;;;;;;20.13;12.33;;;;;;;;;;5033888;28;20210;-82
2022/03/22 03:06:02;;;;;;;18.90;13.07;;;;;;;;;;5033707;28;20245;-82
2022/03/22 03:08:29;;;;;;;19.07;12.93;;;;;;;;;;5033916;28;20647;-83
2022/03/22 03:10:56;;;;;;;17.40;11.80;;;;;;;;;;5034096;28;20248;-83
2022/03/22 03:13:24;;;;;;;18.53;12.37;;;;;;;;;;5032330;28;20245;-82
2022/03/22 03:15:52;;;;;;;20.10;12.17;;;;;;;;;;5020027;28;20250;-82
2022/03/22 03:18:19;;;;;;;19.73;13.13;;;;;;;;;;5020186;28;20676;-81
2022/03/22 03:20:46;;;;;;;21.37;12.90;;;;;;;;;;5019873;28;20242;-81
2022/03/22 03:23:13;;;;;;;20.80;13.43;;;;;;;;;;5021803;28;20205;-81
2022/03/22 03:25:40;;;;;;;17.33;12.50;;;;;;;;;;5023732;28;20313;-82
2022/03/22 03:28:09;;;;;;;17.73;12.63;;;;;;;;;;5023222;28;20268;-82
2022/03/22 03:30:36;;;;;;;17.43;11.83;;;;;;;;;;5023459;28;20266;-82
2022/03/22 03:33:05;;;;;;;18.37;13.10;;;;;;;;;;5020640;28;20241;-82
2022/03/22 03:35:32;;;;;;;16.53;11.03;;;;;;;;;;5019787;28;20237;-81
2022/03/22 03:37:59;;;;;;;25.20;14.80;;;;;;;;;;5019809;28;20213;-81
2022/03/22 03:41:53;;;;;;;20.97;12.57;;;;;;;;;;5019448;28;20252;-81
2022/03/22 03:43:12;;;;;;;19.13;12.33;;;;;;;;;;5018709;28;20241;-80
2022/03/22 03:48:25;;;;;;;16.73;11.47;;;;;;;;;;5019637;28;20741;-81
2022/03/22 03:50:52;;;;;;;15.80;11.83;;;;;;;;;;5018954;28;20308;-81
2022/03/22 03:53:19;;;;;;;17.83;11.57;;;;;;;;;;5020546;28;20224;-81
2022/03/22 03:55:46;;;;;;;20.07;11.77;;;;;;;;;;5019411;28;20308;-81
2022/03/22 03:58:13;;;;;;;16.80;11.87;;;;;;;;;;5020306;28;20213;-81
2022/03/22 04:00:40;;;;;;;18.13;12.57;;;;;;;;;;5019935;28;20747;-81
2022/03/22 04:03:07;;;;;;;20.23;12.80;;;;;;;;;;5007842;28;20307;-81
2022/03/22 04:05:36;;;;;;;17.93;11.90;;;;;;;;;;4999326;28;20611;-82
2022/03/22 04:08:03;;;;;;;19.77;12.77;;;;;;;;;;4999918;28;20241;-81
2022/03/22 04:10:30;;;;;;;18.77;12.13;;;;;;;;;;4999786;28;20265;-81
2022/03/22 04:12:57;;;;;;;17.77;12.30;;;;;;;;;;4999889;28;20240;-81
2022/03/22 04:15:25;;;;;;;19.83;12.13;;;;;;;;;;4999542;28;20233;-82
2022/03/22 04:17:53;;;;;;;15.77;11.67;;;;;;;;;;5003508;28;20296;-82
2022/03/22 04:20:21;;;;;;;21.23;12.17;;;;;;;;;;5003516;28;20232;-82
2022/03/22 04:22:51;;;;;;;18.23;11.90;;;;;;;;;;5002360;28;20234;-81
2022/03/22 04:25:18;;;;;;;21.33;12.47;;;;;;;;;;5004019;28;20279;-82
2022/03/22 04:33:15;;;;;;;16.40;12.57;;;;;;;;;;5006417;28;20283;-82
2022/03/22 04:35:42;;;;;;;18.07;12.53;;;;;;;;;;5005392;28;20240;-82
2022/03/22 04:38:10;;;;;;;18.37;12.53;;;;;;;;;;5005057;28;20209;-82
2022/03/22 04:40:40;;;;;;;17.33;12.30;;;;;;;;;;5004427;28;20255;-82
2022/03/22 04:43:07;;;;;;;18.73;12.63;;;;;;;;;;5005110;28;20214;-82
2022/03/22 04:45:35;;;;;;;17.07;12.77;;;;;;;;;;5005011;28;20237;-82
2022/03/22 04:48:02;;;;;;;18.97;13.20;;;;;;;;;;5004783;28;20218;-80
2022/03/22 04:50:29;;;;;;;20.83;12.53;;;;;;;;;;5004518;28;20237;-81
2022/03/22 04:58:27;;;;;;;20.33;13.23;;;;;;;;;;5004829;28;20257;-81
2022/03/22 05:00:55;;;;;;;20.20;12.10;;;;;;;;;;5004162;28;20246;-81
2022/03/22 05:03:22;;;;;;;19.50;13.07;;;;;;;;;;5019218;28;20209;-82
2022/03/22 05:08:33;;;;;;;19.80;12.40;;;;;;;;;;5024299;28;20222;-82
2022/03/22 05:11:02;;;;;;;18.43;12.23;;;;;;;;;;5017904;28;20239;-83
2022/03/22 05:13:29;;;;;;;22.20;12.30;;;;;;;;;;5012882;28;20219;-82
2022/03/22 05:15:56;;;;;;;21.67;13.43;;;;;;;;;;5000955;28;20228;-82
2022/03/22 05:18:23;;;;;;;20.43;13.07;;;;;;;;;;4999192;28;20214;-82
2022/03/22 05:20:50;;;;;;;26.10;14.00;;;;;;;;;;4994576;28;20241;-82
2022/03/22 05:23:17;;;;;;;17.60;12.47;;;;;;;;;;4987228;28;20205;-82
2022/03/22 05:25:45;;;;;;;23.13;12.13;;;;;;;;;;5003545;28;20283;-82
2022/03/22 05:28:13;;;;;;;20.40;13.00;;;;;;;;;;5003592;28;20220;-83
2022/03/22 05:30:40;;;;;;;18.93;12.97;;;;;;;;;;4995673;28;20313;-83
2022/03/22 05:33:08;;;;;;;19.20;12.90;;;;;;;;;;4996654;28;20236;-83
2022/03/22 05:35:35;;;;;;;22.93;13.40;;;;;;;;;;4997751;28;20235;-83
2022/03/22 05:38:02;;;;;;;21.37;12.97;;;;;;;;;;4989613;28;20209;-83
2022/03/22 05:40:30;;;;;;;19.83;13.67;;;;;;;;;;5002052;28;20665;-84
2022/03/22 05:42:57;;;;;;;22.83;13.20;;;;;;;;;;4991987;28;20217;-83
2022/03/22 05:45:26;;;;;;;22.00;13.03;;;;;;;;;;4976232;28;20237;-84
2022/03/22 05:47:54;;;;;;;24.40;13.77;;;;;;;;;;4978679;28;20578;-84
2022/03/22 05:50:21;;;;;;;22.07;13.13;;;;;;;;;;4994863;28;20256;-83
2022/03/22 05:52:49;;;;;;;19.40;13.07;;;;;;;;;;4995443;28;20222;-83
2022/03/22 05:55:17;;;;;;;21.87;12.73;;;;;;;;;;4981705;28;20205;-84
2022/03/22 05:57:44;;;;;;;29.80;14.47;;;;;;;;;;5001840;28;20648;-84
2022/03/22 06:00:12;;;;;;;19.57;13.13;;;;;;;;;;4994529;28;20229;-84
2022/03/22 06:02:40;;;;;;;21.60;14.37;;;;;;;;;;4995625;28;20216;-84
2022/03/22 06:05:08;;;;;;;25.80;14.07;;;;;;;;;;4994581;28;20271;-85
2022/03/22 06:07:36;;;;;;;22.97;14.30;;;;;;;;;;4997886;28;20212;-86
2022/03/22 06:10:03;;;;;;;23.23;13.60;;;;;;;;;;4995251;28;20244;-83
2022/03/22 06:12:38;;;;;;;20.80;12.87;;;;;;;;;;4995503;28;20563;-83
2022/03/22 06:17:49;;;;;;;23.50;13.80;;;;;;;;;;4994161;28;20206;-83
2022/03/22 06:20:16;;;;;;;23.33;13.07;;;;;;;;;;4996010;28;20233;-82
2022/03/22 06:22:45;;;;;;;20.00;13.60;;;;;;;;;;4999031;28;20206;-83
2022/03/22 06:25:12;;;;;;;27.07;14.37;;;;;;;;;;4996215;28;20210;-83
2022/03/22 06:27:40;;;;;;;27.23;15.10;;;;;;;;;;4996606;28;20214;-84
2022/03/22 06:30:08;;;;;;;21.67;13.60;;;;;;;;;;4995666;28;20252;-84
2022/03/22 06:32:41;;;;;;;30.67;14.37;;;;;;;;;;4996428;28;20231;-83
2022/03/22 06:35:10;;;;;;;32.27;15.53;;;;;;;;;;4998624;28;20219;-82
2022/03/22 06:37:37;;;;;;;26.30;15.27;;;;;;;;;;5002125;28;20269;-81
2022/03/22 06:40:05;;;;;;;22.80;14.93;;;;;;;;;;5000889;28;20228;-81
2022/03/22 06:42:32;;;;;;;24.83;14.87;;;;;;;;;;5000461;28;20216;-81
2022/03/22 06:44:59;;;;;;;29.50;16.03;;;;;;;;;;4988235;28;20218;-81
2022/03/22 06:47:26;;;;;;;24.13;15.30;;;;;;;;;;4998506;28;20237;-81
2022/03/22 06:49:53;;;;;;;26.23;15.77;;;;;;;;;;5005933;28;20225;-80
2022/03/22 06:52:22;;;;;;;24.90;15.50;;;;;;;;;;5004834;28;20233;-81
2022/03/22 06:54:49;;;;;;;22.40;15.07;;;;;;;;;;5004394;28;20207;-81
2022/03/22 06:57:16;;;;;;;28.47;17.03;;;;;;;;;;5008290;28;20238;-81
2022/03/22 06:59:43;;;;;;;35.60;17.07;;;;;;;;;;4983793;28;20241;-80
2022/03/22 07:02:10;;;;;;;25.57;17.37;;;;;;;;;;4997893;28;20241;-80
2022/03/22 07:04:37;;;;;;;23.83;14.80;;;;;;;;;;4999203;28;20258;-81
2022/03/22 07:07:04;;;;;;;29.43;17.00;;;;;;;;;;5000114;28;20233;-81
2022/03/22 07:09:33;;;;;;;25.70;16.17;;;;;;;;;;5003284;28;20246;-81
2022/03/22 07:12:03;;;;;;;26.47;15.07;;;;;;;;;;5000340;28;20238;-81
2022/03/22 07:14:30;;;;;;;24.93;15.43;;;;;;;;;;5000116;28;20215;-81
2022/03/22 07:16:57;;;;;;;24.03;15.33;;;;;;;;;;4999327;28;20242;-81
2022/03/22 07:19:24;;;;;;;23.27;15.47;;;;;;;;;;5000229;28;20227;-80
2022/03/22 07:21:52;;;;;;;22.00;14.90;;;;;;;;;;4999520;28;20243;-81
2022/03/22 07:24:19;;;;;;;26.87;15.60;;;;;;;;;;5000224;28;20190;-81
2022/03/22 07:26:48;;;;;;;25.57;16.47;;;;;;;;;;4999459;28;20243;-80
2022/03/22 07:29:15;;;;;;;26.57;16.23;;;;;;;;;;5001115;28;20212;-81
2022/03/22 07:31:42;;;;;;;27.70;16.07;;;;;;;;;;5000452;28;20254;-81
2022/03/22 07:34:10;;;;;;;24.67;16.20;;;;;;;;;;5000534;28;20235;-81
2022/03/22 07:36:39;;;;;;;25.10;16.17;;;;;;;;;;4999331;28;20242;-81
2022/03/22 07:39:06;;;;;;;23.13;16.33;;;;;;;;;;4999316;28;20215;-82
2022/03/22 07:41:33;;;;;;;23.47;15.57;;;;;;;;;;4999098;28;20275;-82
2022/03/22 07:44:03;;;;;;;28.20;18.50;;;;;;;;;;4999993;28;20747;-82
2022/03/22 07:46:30;;;;;;;24.10;15.40;;;;;;;;;;4996660;28;20251;-82
2022/03/22 07:52:57;;;;;;;24.20;16.87;;;;;;;;;;4994718;28;20262;-83
2022/03/22 07:54:30;;;;;;;23.70;15.27;;;;;;;;;;5000585;28;20238;-82
2022/03/22 07:56:57;;;;;;;17.70;13.30;;;;;;;;;;5016228;28;20238;-82
2022/03/22 07:59:26;;;;;;;23.90;13.60;;;;;;;;;;5015829;28;20238;-83
2022/03/22 08:01:54;;;;;;;20.67;13.63;;;;;;;;;;5017662;28;20245;-83
2022/03/22 08:04:21;;;;;;;22.80;13.63;;;;;;;;;;5019364;28;20265;-83
2022/03/22 08:06:48;;;;;;;20.87;13.10;;;;;;;;;;5019212;28;20233;-82
2022/03/22 08:09:15;;;;;;;19.00;12.40;;;;;;;;;;5019650;28;20560;-83
2022/03/22 08:11:42;;;;;;;18.60;11.93;;;;;;;;;;5018063;28;20235;-83
2022/03/22 08:14:10;;;;;;;16.80;11.50;;;;;;;;;;5019546;28;20213;-83
2022/03/22 08:16:40;;;;;;;16.07;10.80;;;;;;;;;;5000736;28;20236;-83
2022/03/22 08:19:07;;;;;;;13.43;10.00;;;;;;;;;;4999678;28;20202;-83
2022/03/22 08:21:35;;;;;;;20.30;11.50;;;;;;;;;;4997761;28;20234;-83
2022/03/22 08:24:02;;;;;;;16.37;10.37;;;;;;;;;;4998514;28;20212;-83
2022/03/22 08:26:29;;;;;;;16.07;11.63;;;;;;;;;;4997602;28;20243;-83
2022/03/22 08:28:57;;;;;;;13.17;9.47;;;;;;;;;;4998033;28;20221;-83
2022/03/22 08:31:24;;;;;;;11.83;9.33;;;;;;;;;;4997192;28;20236;-83
2022/03/22 08:33:53;;;;;;;13.07;9.90;;;;;;;;;;4997519;28;20242;-83
2022/03/22 08:36:21;;;;;;;13.77;9.40;;;;;;;;;;4996573;28;20242;-83
2022/03/22 08:38:48;;;;;;;12.63;8.90;;;;;;;;;;4997391;28;20242;-83
2022/03/22 08:41:15;;;;;;;14.40;8.83;;;;;;;;;;4996563;28;20290;-83
2022/03/22 08:43:43;;;;;;;13.63;8.93;;;;;;;;;;4996789;28;20200;-83
2022/03/22 08:46:11;;;;;;;11.83;8.93;;;;;;;;;;4996405;28;20263;-83
2022/03/22 08:48:38;;;;;;;12.30;9.07;;;;;;;;;;4997082;28;20207;-83
2022/03/22 08:51:06;;;;;;;11.53;8.60;;;;;;;;;;4996224;28;20266;-84
2022/03/22 08:53:33;;;;;;;11.63;8.03;;;;;;;;;;5001196;28;20227;-81
2022/03/22 08:56:03;;;;;;;10.30;7.90;;;;;;;;;;4996971;28;20235;-81
2022/03/22 08:58:30;;;;;;;10.07;7.93;;;;;;;;;;4997648;28;20609;-81
2022/03/22 09:00:57;;;;;;;11.30;8.47;;;;;;;;;;4996229;28;20244;-82
2022/03/22 09:03:26;;;;;;;10.50;7.80;;;;;;;;;;4995615;28;20208;-81
2022/03/22 09:06:08;;;;;;;12.30;7.77;;;;;;;;;;4995308;28;20667;-82
2022/03/22 09:08:36;;;;;;;10.43;7.10;;;;;;;;;;4995934;28;20665;-82
2022/03/22 09:11:03;;;;;;;10.70;7.70;;;;;;;;;;4995563;28;20239;-81
2022/03/22 09:13:30;;;;;;;10.20;7.57;;;;;;;;;;4997614;28;20235;-85
2022/03/22 09:15:57;;;;;;;8.47;6.90;;;;;;;;;;4997119;28;20732;-82
2022/03/22 09:18:25;;;;;;;11.57;6.70;;;;;;;;;;4996836;28;20212;-85
2022/03/22 09:20:52;;;;;;;9.70;7.07;;;;;;;;;;4996431;28;20263;-82
2022/03/22 09:23:20;;;;;;;11.40;6.90;;;;;;;;;;4997014;28;20208;-81
2022/03/22 09:25:49;;;;;;;8.23;6.90;;;;;;;;;;4996668;28;20242;-82
2022/03/22 09:28:16;;;;;;;8.43;7.03;;;;;;;;;;4996342;28;20212;-83
2022/03/22 09:30:45;;;;;;;11.87;7.30;;;;;;;;;;4995786;28;20722;-83
2022/03/22 09:33:12;;;;;;;14.97;7.07;;;;;;;;;;4995675;28;20731;-82
2022/03/22 09:35:39;;;;;;;10.40;7.43;;;;;;;;;;4995207;28;20310;-85
2022/03/22 09:38:06;;;;;;;8.60;6.87;;;;;;;;;;4990108;28;20700;-83
2022/03/22 09:40:33;;;;;;;9.60;6.57;;;;;;;;;;4981017;28;20258;-83
2022/03/22 09:43:02;;;;;;;9.53;6.70;;;;;;;;;;4995544;28;20673;-83
2022/03/22 09:45:30;;;;;;;10.47;7.23;;;;;;;;;;4994240;28;20294;-83
2022/03/22 09:47:59;;;;;;;8.77;6.97;;;;;;;;;;4995291;28;20204;-85
2022/03/22 09:51:44;;;;;;;8.93;7.10;;;;;;;;;;4994422;28;20242;-82
2022/03/22 09:53:15;;;;;;;9.90;6.87;;;;;;;;;;4994368;28;20215;-83
2022/03/22 09:55:42;;;;;;;8.13;6.40;;;;;;;;;;4990033;28;20314;-82
2022/03/22 09:58:10;;;;;;;8.23;6.00;;;;;;;;;;4994438;28;20716;-82
2022/03/22 10:00:38;;;;;;;10.07;6.83;;;;;;;;;;4993495;28;20286;-84
2022/03/22 10:03:05;;;;;;;10.67;7.13;;;;;;;;;;4994797;28;20262;-83
2022/03/22 10:05:32;;;;;;;8.83;7.33;;;;;;;;;;4993704;28;20717;-83
2022/03/22 10:08:00;;;;;;;9.23;6.67;;;;;;;;;;4994801;28;20219;-83
2022/03/22 10:10:27;;;;;;;8.93;6.90;;;;;;;;;;4993684;28;20243;-83
2022/03/22 10:12:59;;;;;;;9.83;6.57;;;;;;;;;;4994097;28;20204;-83
2022/03/22 10:15:31;;;;;;;8.13;6.70;;;;;;;;;;4993499;28;20255;-83
2022/03/22 10:18:04;;;;;;;8.03;6.67;;;;;;;;;;4994328;28;20196;-83
2022/03/22 10:20:31;;;;;;;8.33;6.63;;;;;;;;;;4993521;28;20239;-83
2022/03/22 10:22:59;;;;;;;9.33;6.87;;;;;;;;;;4993885;28;20212;-83
2022/03/22 10:25:27;;;;;;;7.07;6.30;;;;;;;;;;4994082;28;20238;-83
2022/03/22 10:27:55;;;;;;;12.20;6.57;;;;;;;;;;4993668;28;20212;-84
2022/03/22 10:30:22;;;;;;;9.50;6.15;;;;;;;;;;4993515;28;20270;-83
2022/03/22 10:32:51;;;;;;;11.05;6.82;;;;;;;;;;4993784;28;20208;-83
2022/03/22 10:35:20;;;;;;;8.80;6.90;;;;;;;;;;4992898;28;20259;-84
2022/03/22 10:37:48;;;;;;;7.10;5.97;;;;;;;;;;4993892;28;20215;-83
2022/03/22 10:40:22;;;;;;;8.93;6.32;;;;;;;;;;4993548;28;20239;-83
2022/03/22 10:42:50;;;;;;;9.15;6.20;;;;;;;;;;4993732;28;20298;-83
2022/03/22 10:45:17;;;;;;;8.80;7.00;;;;;;;;;;4990515;28;20569;-84
2022/03/22 10:47:44;;;;;;;7.75;5.72;;;;;;;;;;4973924;28;20232;-83
2022/03/22 10:50:13;;;;;;;7.13;6.15;;;;;;;;;;4987002;28;20238;-84
2022/03/22 10:52:50;;;;;;;8.00;6.78;;;;;;;;;;5000611;28;20196;-84
2022/03/22 10:55:20;;;;;;;8.15;6.63;;;;;;;;;;5011947;28;20223;-84
2022/03/22 10:57:48;;;;;;;8.50;6.20;;;;;;;;;;5012814;28;20211;-84
2022/03/22 11:00:16;;;;;;;7.05;6.35;;;;;;;;;;4973292;28;20237;-84
2022/03/22 11:02:43;;;;;;;10.13;6.05;;;;;;;;;;4988665;28;20215;-84
2022/03/22 11:05:10;;;;;;;9.13;6.25;;;;;;;;;;5011732;28;20244;-84
2022/03/22 11:07:42;;;;;;;7.93;6.47;;;;;;;;;;5012474;28;20680;-85
2022/03/22 11:10:09;;;;;;;7.68;6.40;;;;;;;;;;5011868;28;20868;-84
2022/03/22 11:12:37;;;;;;;7.55;6.65;;;;;;;;;;5012504;28;20554;-84
2022/03/22 11:15:05;;;;;;;7.13;6.43;;;;;;;;;;5012128;28;20207;-84
2022/03/22 11:17:34;;;;;;;7.22;6.43;;;;;;;;;;5012308;28;20207;-85
2022/03/22 11:20:01;;;;;;;9.27;6.35;;;;;;;;;;4976290;28;20242;-84
2022/03/22 11:22:30;;;;;;;8.65;6.80;;;;;;;;;;4973231;28;20216;-84
2022/03/22 11:25:07;;;;;;;6.85;6.15;;;;;;;;;;4973076;28;20208;-85
2022/03/22 11:27:35;;;;;;;13.13;6.95;;;;;;;;;;4972455;28;20232;-84
2022/03/22 11:30:03;;;;;;;7.53;6.70;;;;;;;;;;4976826;28;20712;-85
2022/03/22 11:35:16;;;;;;;9.65;6.82;;;;;;;;;;5004132;28;20755;-84
2022/03/22 11:37:43;;;;;;;7.50;6.30;;;;;;;;;;4996217;28;20215;-85
2022/03/22 11:43:10;;;;;;;7.82;6.25;;;;;;;;;;4974940;28;20208;-84
2022/03/22 11:45:46;;;;;;;6.82;6.07;;;;;;;;;;4991900;28;20261;-85
2022/03/22 11:48:13;;;;;;;7.30;5.68;;;;;;;;;;4991547;28;20212;-84
2022/03/22 11:50:43;;;;;;;8.07;6.28;;;;;;;;;;4991979;28;20615;-85
2022/03/22 11:53:16;;;;;;;10.48;6.55;;;;;;;;;;4992435;28;20204;-85
2022/03/22 11:55:48;;;;;;;9.25;6.45;;;;;;;;;;4991976;28;20240;-85
2022/03/22 11:58:15;;;;;;;9.57;6.30;;;;;;;;;;4993003;28;20223;-85
2022/03/22 12:00:44;;;;;;;7.60;6.82;;;;;;;;;;4987381;28;20236;-85
2022/03/22 12:03:12;;;;;;;7.10;6.40;;;;;;;;;;4991208;28;20204;-85
2022/03/22 12:05:39;;;;;;;9.15;6.40;;;;;;;;;;4992051;28;20240;-85
2022/03/22 12:08:07;;;;;;;8.13;6.32;;;;;;;;;;4992445;28;20264;-85
2022/03/22 12:10:34;;;;;;;7.68;6.60;;;;;;;;;;4991946;28;20242;-85
2022/03/22 12:13:03;;;;;;;7.10;5.93;;;;;;;;;;4997228;28;20659;-85
2022/03/22 12:15:30;;;;;;;7.35;6.65;;;;;;;;;;4992142;28;20240;-85
2022/03/22 12:17:57;;;;;;;7.47;6.18;;;;;;;;;;4992478;28;20481;-84
2022/03/22 12:20:25;;;;;;;6.00;5.40;;;;;;;;;;4995724;28;20243;-85
2022/03/22 12:22:55;;;;;;;7.30;6.20;;;;;;;;;;4995045;28;20204;-85
2022/03/22 12:25:23;;;;;;;6.85;6.05;;;;;;;;;;4993987;28;20738;-85
2022/03/22 12:27:51;;;;;;;6.80;5.80;;;;;;;;;;4994159;28;20215;-85
2022/03/22 12:30:21;;;;;;;8.57;6.40;;;;;;;;;;4992256;28;20228;-85
2022/03/22 12:32:50;;;;;;;8.35;6.07;;;;;;;;;;4992293;28;20250;-85
2022/03/22 12:35:17;;;;;;;6.15;5.55;;;;;;;;;;4992031;28;20664;-85
2022/03/22 12:37:44;;;;;;;6.72;6.13;;;;;;;;;;4994703;28;20223;-86
2022/03/22 12:40:13;;;;;;;7.28;6.03;;;;;;;;;;4995554;28;20227;-85
2022/03/22 12:42:40;;;;;;;6.90;6.20;;;;;;;;;;4996005;28;20208;-85
2022/03/22 12:45:07;;;;;;;9.07;5.57;;;;;;;;;;4995670;28;20231;-85
2022/03/22 12:47:37;;;;;;;9.88;6.85;;;;;;;;;;4995967;28;20208;-85
2022/03/22 12:50:06;;;;;;;7.85;6.15;;;;;;;;;;4995567;28;20573;-85
2022/03/22 12:52:33;;;;;;;6.60;5.90;;;;;;;;;;4996661;28;20296;-85
2022/03/22 12:55:00;;;;;;;8.90;6.35;;;;;;;;;;4995715;28;20224;-85
2022/03/22 12:57:28;;;;;;;6.25;5.45;;;;;;;;;;4995969;28;20240;-85
2022/03/22 12:59:56;;;;;;;6.50;5.20;;;;;;;;;;4995752;28;20314;-86
2022/03/22 13:02:23;;;;;;;7.03;5.80;;;;;;;;;;4982574;28;20240;-85
2022/03/22 13:04:53;;;;;;;5.82;5.32;;;;;;;;;;4975546;28;20205;-85
2022/03/22 13:07:22;;;;;;;7.85;5.90;;;;;;;;;;4975855;28;20243;-85
2022/03/22 13:12:35;;;;;;;6.47;5.88;;;;;;;;;;4981644;28;20222;-85
2022/03/22 13:15:04;;;;;;;6.72;5.85;;;;;;;;;;4995699;28;20232;-85
2022/03/22 13:17:32;;;;;;;5.75;5.15;;;;;;;;;;4994866;28;20232;-85
2022/03/22 13:20:00;;;;;;;6.45;5.28;;;;;;;;;;4994851;28;20220;-85
2022/03/22 13:22:28;;;;;;;6.78;5.22;;;;;;;;;;4994655;28;20576;-85
2022/03/22 13:25:09;;;;;;;9.10;5.55;;;;;;;;;;4994518;28;20568;-85
2022/03/22 13:27:36;;;;;;;6.32;5.55;;;;;;;;;;4994626;28;20231;-85
2022/03/22 13:30:04;;;;;;;8.82;5.35;;;;;;;;;;4994413;28;20240;-85
2022/03/22 13:32:33;;;;;;;6.90;4.78;;;;;;;;;;4994928;28;20215;-85
2022/03/22 13:35:02;;;;;;;10.63;5.10;;;;;;;;;;4994653;28;20324;-85
2022/03/22 13:37:30;;;;;;;5.55;5.05;;;;;;;;;;4995080;28;20239;-85
2022/03/22 13:40:06;;;;;;;5.82;5.22;;;;;;;;;;4994946;28;20251;-85
2022/03/22 13:42:33;;;;;;;6.75;5.57;;;;;;;;;;4995390;28;20231;-85
2022/03/22 13:45:00;;;;;;;5.43;4.93;;;;;;;;;;4994454;28;20207;-85
2022/03/22 13:47:29;;;;;;;5.78;5.18;;;;;;;;;;4994095;28;20688;-85
2022/03/22 13:49:56;;;;;;;7.03;5.22;;;;;;;;;;4992999;28;20228;-85
2022/03/22 13:52:27;;;;;;;5.45;4.95;;;;;;;;;;4994399;28;20240;-85
2022/03/22 13:54:54;;;;;;;6.03;5.38;;;;;;;;;;4994040;28;20207;-85
2022/03/22 13:57:23;;;;;;;5.50;5.00;;;;;;;;;;4988651;28;20223;-85
2022/03/22 13:59:56;;;;;;;5.88;5.00;;;;;;;;;;4994041;28;20263;-86
2022/03/22 14:02:23;;;;;;;5.78;5.25;;;;;;;;;;4993853;28;20244;-85
2022/03/22 14:04:50;;;;;;;6.13;4.75;;;;;;;;;;4994421;28;20235;-86
2022/03/22 14:07:18;;;;;;;6.63;5.57;;;;;;;;;;4993852;28;20267;-86
2022/03/22 14:09:46;;;;;;;6.50;4.93;;;;;;;;;;4993751;28;20238;-86
2022/03/22 14:12:13;;;;;;;6.45;5.85;;;;;;;;;;4993665;28;20612;-86
2022/03/22 14:14:40;;;;;;;6.68;4.50;;;;;;;;;;4991338;28;20205;-86
2022/03/22 14:17:08;;;;;;;7.43;5.15;;;;;;;;;;4993009;28;20251;-87
2022/03/22 14:19:35;;;;;;;5.38;4.63;;;;;;;;;;4993515;28;20235;-86
2022/03/22 14:22:03;;;;;;;5.85;5.03;;;;;;;;;;5008917;28;20231;-86
2022/03/22 14:24:31;;;;;;;5.40;4.60;;;;;;;;;;5009749;28;20262;-86
2022/03/22 14:27:00;;;;;;;5.53;5.03;;;;;;;;;;4992732;28;20232;-86
2022/03/22 14:29:27;;;;;;;5.45;4.93;;;;;;;;;;4981354;28;20248;-85
2022/03/22 14:31:54;;;;;;;8.23;5.50;;;;;;;;;;4973644;28;20244;-86
2022/03/22 14:37:06;;;;;;;5.35;4.88;;;;;;;;;;4973664;28;20728;-85
2022/03/22 14:39:34;;;;;;;5.68;4.63;;;;;;;;;;4973949;28;20233;-85
2022/03/22 14:42:03;;;;;;;4.97;4.53;;;;;;;;;;4973939;28;20236;-85
2022/03/22 14:44:30;;;;;;;5.80;5.18;;;;;;;;;;4974300;28;20260;-85
2022/03/22 14:46:57;;;;;;;6.60;4.88;;;;;;;;;;4973395;28;20751;-84
2022/03/22 14:49:25;;;;;;;5.25;4.75;;;;;;;;;;4975293;28;20231;-85
2022/03/22 14:54:37;;;;;;;8.10;4.85;;;;;;;;;;4973544;28;20275;-85
2022/03/22 14:59:50;;;;;;;8.75;5.22;;;;;;;;;;4973436;28;20228;-85
2022/03/22 15:02:17;;;;;;;6.15;5.55;;;;;;;;;;4973533;28;20247;-85
2022/03/22 15:04:46;;;;;;;8.52;5.20;;;;;;;;;;4973722;28;20205;-85
2022/03/22 15:07:15;;;;;;;7.15;5.45;;;;;;;;;;4972940;28;20251;-85
2022/03/22 15:09:42;;;;;;;7.00;4.88;;;;;;;;;;4973965;28;20295;-85
2022/03/22 15:12:10;;;;;;;5.15;4.65;;;;;;;;;;4973478;28;20271;-85
2022/03/22 15:14:38;;;;;;;6.18;4.93;;;;;;;;;;4974074;28;20213;-85
2022/03/22 15:17:05;;;;;;;5.00;4.53;;;;;;;;;;4973258;28;20268;-85
2022/03/22 15:19:32;;;;;;;6.03;4.55;;;;;;;;;;4974792;28;20235;-85